createdAt,value
2017-11-01T00:00:51.767Z,8.56
2017-11-01T00:03:19.251Z,8.58
2017-11-01T00:05:46.751Z,8.60
2017-11-01T00:08:14.306Z,8.62
2017-11-01T00:10:41.791Z,8.62
2017-11-01T00:13:09.279Z,8.61
2017-11-01T00:15:36.812Z,8.61
2017-11-01T00:18:04.292Z,8.60
2017-11-01T00:20:31.783Z,8.59
2017-11-01T00:22:59.337Z,8.59
2017-11-01T00:25:26.820Z,8.63
2017-11-01T00:27:54.390Z,8.66
2017-11-01T00:30:21.952Z,8.67
2017-11-01T00:32:49.431Z,8.69
2017-11-01T00:35:16.910Z,8.70
2017-11-01T00:37:44.423Z,8.73
2017-11-01T00:40:11.955Z,8.74
2017-11-01T00:42:39.488Z,8.77
2017-11-01T00:45:06.970Z,8.77
2017-11-01T00:47:34.461Z,8.75
2017-11-01T00:52:35.884Z,8.75
2017-11-01T00:55:03.415Z,8.77
2017-11-01T00:57:30.901Z,8.77
2017-11-01T00:59:58.393Z,8.79
2017-11-01T01:02:25.915Z,8.80
2017-11-01T01:04:53.400Z,8.80
2017-11-01T01:07:20.890Z,8.83
2017-11-01T01:09:48.425Z,8.83
2017-11-01T01:12:15.915Z,8.84
2017-11-01T01:14:43.404Z,8.85
2017-11-01T01:17:10.940Z,8.85
2017-11-01T01:19:38.420Z,8.83
2017-11-01T01:22:05.903Z,8.85
2017-11-01T01:24:33.437Z,8.85
2017-11-01T01:27:01.026Z,8.87
2017-11-01T01:29:28.565Z,8.85
2017-11-01T01:31:56.051Z,8.82
2017-11-01T01:34:23.535Z,8.79
2017-11-01T01:36:51.048Z,8.79
2017-11-01T01:39:18.570Z,8.80
2017-11-01T01:41:46.296Z,8.77
2017-11-01T01:44:13.848Z,8.77
2017-11-01T01:46:41.364Z,8.77
2017-11-01T01:49:08.849Z,8.77
2017-11-01T01:51:36.335Z,8.72
2017-11-01T01:54:03.860Z,8.72
2017-11-01T01:56:31.343Z,8.73
2017-11-01T01:58:58.833Z,8.73
2017-11-01T02:01:26.441Z,8.74
2017-11-01T02:03:53.931Z,8.75
2017-11-01T02:06:21.423Z,8.75
2017-11-01T02:08:48.962Z,8.74
2017-11-01T02:11:16.471Z,8.70
2017-11-01T02:13:43.956Z,8.67
2017-11-01T02:16:11.589Z,8.65
2017-11-01T02:18:39.076Z,8.63
2017-11-01T02:21:06.556Z,8.62
2017-11-01T02:23:34.111Z,8.61
2017-11-01T02:26:01.603Z,8.62
2017-11-01T02:28:29.092Z,8.62
2017-11-01T02:30:56.625Z,8.60
2017-11-01T02:33:24.126Z,8.58
2017-11-01T02:35:51.611Z,8.54
2017-11-01T02:38:19.204Z,8.52
2017-11-01T02:40:46.705Z,8.50
2017-11-01T02:43:14.195Z,8.50
2017-11-01T02:45:41.736Z,8.50
2017-11-01T02:48:09.240Z,8.52
2017-11-01T02:50:36.732Z,8.55
2017-11-01T02:53:04.252Z,8.54
2017-11-01T02:55:31.738Z,8.53
2017-11-01T02:57:59.228Z,8.52
2017-11-01T03:00:26.856Z,8.55
2017-11-01T03:02:54.347Z,8.55
2017-11-01T03:05:21.823Z,8.57
2017-11-01T03:07:49.402Z,8.56
2017-11-01T03:10:16.970Z,8.57
2017-11-01T03:12:44.464Z,8.57
2017-11-01T03:15:11.976Z,8.55
2017-11-01T03:17:39.487Z,8.55
2017-11-01T03:20:07.024Z,8.51
2017-11-01T03:22:34.557Z,8.46
2017-11-01T03:25:02.044Z,8.45
2017-11-01T03:27:29.675Z,8.40
2017-11-01T03:29:57.177Z,8.38
2017-11-01T03:32:24.665Z,8.37
2017-11-01T03:34:52.175Z,8.35
2017-11-01T03:37:19.656Z,8.31
2017-11-01T03:39:47.172Z,8.30
2017-11-01T03:42:14.736Z,8.29
2017-11-01T03:44:42.308Z,8.23
2017-11-01T03:47:09.819Z,8.21
2017-11-01T03:49:37.309Z,8.22
2017-11-01T03:52:04.863Z,8.17
2017-11-01T03:54:32.352Z,8.17
2017-11-01T03:56:59.836Z,8.18
2017-11-01T03:59:27.354Z,8.15
2017-11-01T04:01:54.843Z,8.16
2017-11-01T04:04:22.365Z,8.16
2017-11-01T04:06:49.868Z,8.14
2017-11-01T04:09:17.409Z,8.15
2017-11-01T04:11:44.928Z,8.16
2017-11-01T04:14:12.417Z,8.17
2017-11-01T04:16:39.966Z,8.13
2017-11-01T04:19:09.389Z,8.10
2017-11-01T04:21:38.855Z,8.09
2017-11-01T04:24:06.390Z,8.10
2017-11-01T04:26:33.963Z,8.10
2017-11-01T04:29:01.447Z,8.06
2017-11-01T04:31:28.995Z,8.05
2017-11-01T04:33:56.483Z,8.05
2017-11-01T04:36:23.977Z,8.05
2017-11-01T04:38:51.511Z,8.06
2017-11-01T04:41:19.052Z,8.08
2017-11-01T04:43:46.538Z,8.07
2017-11-01T04:46:14.084Z,8.10
2017-11-01T04:48:41.572Z,8.09
2017-11-01T04:51:10.969Z,8.06
2017-11-01T04:53:40.288Z,8.05
2017-11-01T04:56:10.766Z,8.08
2017-11-01T04:58:38.254Z,8.07
2017-11-01T05:01:05.747Z,8.06
2017-11-01T05:03:33.287Z,8.05
2017-11-01T05:06:00.786Z,8.06
2017-11-01T05:08:33.849Z,8.06
2017-11-01T05:11:06.872Z,8.04
2017-11-01T05:13:35.187Z,8.05
2017-11-01T05:16:03.462Z,8.07
2017-11-01T05:18:30.950Z,8.06
2017-11-01T05:20:58.488Z,8.07
2017-11-01T05:23:26.067Z,8.07
2017-11-01T05:25:55.463Z,8.08
2017-11-01T05:28:22.971Z,8.07
2017-11-01T05:30:50.509Z,8.08
2017-11-01T05:33:18.001Z,8.09
2017-11-01T05:35:45.495Z,8.09
2017-11-01T05:38:13.029Z,8.06
2017-11-01T05:40:40.525Z,8.07
2017-11-01T05:43:08.075Z,8.08
2017-11-01T05:45:35.603Z,8.09
2017-11-01T05:48:03.104Z,8.09
2017-11-01T05:50:33.608Z,8.10
2017-11-01T05:53:01.375Z,8.12
2017-11-01T05:55:28.859Z,8.11
2017-11-01T05:57:56.343Z,8.09
2017-11-01T06:00:24.159Z,8.11
2017-11-01T06:02:51.646Z,8.13
2017-11-01T06:05:19.185Z,8.14
2017-11-01T06:07:46.708Z,8.14
2017-11-01T06:10:14.202Z,8.15
2017-11-01T06:12:41.774Z,8.14
2017-11-01T06:15:09.515Z,8.18
2017-11-01T06:17:37.003Z,8.20
2017-11-01T06:20:04.499Z,8.20
2017-11-01T06:22:32.012Z,8.21
2017-11-01T06:24:59.538Z,8.25
2017-11-01T06:27:27.057Z,8.24
2017-11-01T06:29:54.546Z,8.24
2017-11-01T06:32:22.118Z,8.27
2017-11-01T06:34:49.644Z,8.30
2017-11-01T06:37:17.134Z,8.31
2017-11-01T06:39:44.695Z,8.34
2017-11-01T06:42:12.259Z,8.33
2017-11-01T06:44:39.977Z,8.32
2017-11-01T06:47:07.484Z,8.33
2017-11-01T06:49:35.028Z,8.36
2017-11-01T06:52:02.508Z,8.40
2017-11-01T06:54:30.000Z,8.42
2017-11-01T06:56:57.511Z,8.45
2017-11-01T06:59:25.075Z,8.47
2017-11-01T07:01:52.601Z,8.51
2017-11-01T07:04:20.097Z,8.49
2017-11-01T07:06:47.588Z,8.51
2017-11-01T07:09:15.118Z,8.48
2017-11-01T07:11:42.685Z,8.48
2017-11-01T07:14:10.168Z,8.47
2017-11-01T07:16:37.731Z,8.46
2017-11-01T07:19:05.230Z,8.43
2017-11-01T07:21:32.800Z,8.44
2017-11-01T07:24:00.317Z,8.46
2017-11-01T07:26:27.916Z,8.47
2017-11-01T07:28:55.424Z,8.49
2017-11-01T07:31:22.946Z,8.51
2017-11-01T07:33:50.472Z,8.51
2017-11-01T07:36:17.960Z,8.52
2017-11-01T07:38:45.454Z,8.54
2017-11-01T07:41:13.082Z,8.53
2017-11-01T07:43:40.577Z,8.57
2017-11-01T07:46:08.093Z,8.58
2017-11-01T07:48:35.656Z,8.64
2017-11-01T07:51:03.211Z,8.69
2017-11-01T07:53:30.691Z,8.72
2017-11-01T07:55:58.236Z,8.75
2017-11-01T07:58:25.782Z,8.82
2017-11-01T08:00:53.272Z,8.82
2017-11-01T08:03:20.800Z,8.87
2017-11-01T08:05:48.287Z,8.94
2017-11-01T08:08:15.781Z,8.97
2017-11-01T08:10:43.305Z,9.01
2017-11-01T08:13:10.795Z,9.02
2017-11-01T08:15:38.286Z,9.01
2017-11-01T08:18:05.795Z,9.06
2017-11-01T08:20:33.313Z,9.12
2017-11-01T08:23:00.833Z,9.14
2017-11-01T08:25:28.321Z,9.16
2017-11-01T08:27:55.826Z,9.14
2017-11-01T08:30:23.348Z,9.18
2017-11-01T08:32:50.836Z,9.23
2017-11-01T08:35:18.340Z,9.21
2017-11-01T08:37:45.924Z,9.23
2017-11-01T08:40:13.427Z,9.29
2017-11-01T08:42:41.048Z,9.32
2017-11-01T08:45:08.605Z,9.31
2017-11-01T08:47:36.093Z,9.31
2017-11-01T08:50:03.612Z,9.33
2017-11-01T08:52:31.140Z,9.36
2017-11-01T08:54:58.726Z,9.37
2017-11-01T08:57:26.219Z,9.37
2017-11-01T08:59:53.751Z,9.44
2017-11-01T09:02:21.244Z,9.46
2017-11-01T09:04:48.729Z,9.52
2017-11-01T09:07:16.256Z,9.52
2017-11-01T09:09:43.752Z,9.58
2017-11-01T09:12:11.237Z,9.62
2017-11-01T09:14:38.772Z,9.61
2017-11-01T09:17:06.272Z,9.61
2017-11-01T09:19:33.809Z,9.57
2017-11-01T09:22:01.351Z,9.61
2017-11-01T09:24:28.944Z,9.60
2017-11-01T09:26:56.427Z,9.59
2017-11-01T09:29:23.959Z,9.59
2017-11-01T09:31:51.443Z,9.60
2017-11-01T09:34:18.945Z,9.62
2017-11-01T09:36:46.481Z,9.64
2017-11-01T09:39:13.987Z,9.67
2017-11-01T09:41:41.475Z,9.77
2017-11-01T09:44:09.012Z,9.99
2017-11-01T09:46:36.546Z,10.06
2017-11-01T09:49:04.117Z,10.00
2017-11-01T09:51:31.611Z,10.00
2017-11-01T09:53:59.249Z,9.98
2017-11-01T09:56:26.796Z,10.00
2017-11-01T09:58:54.276Z,9.99
2017-11-01T10:01:21.767Z,9.99
2017-11-01T10:03:49.279Z,9.92
2017-11-01T10:06:16.769Z,9.92
2017-11-01T10:08:44.304Z,9.88
2017-11-01T10:11:11.791Z,9.90
2017-11-01T10:13:39.275Z,9.93
2017-11-01T10:16:06.804Z,9.93
2017-11-01T10:18:34.316Z,9.90
2017-11-01T10:21:01.811Z,9.95
2017-11-01T10:23:29.444Z,9.95
2017-11-01T10:25:56.935Z,9.95
2017-11-01T10:28:24.442Z,9.91
2017-11-01T10:30:52.007Z,9.91
2017-11-01T10:33:19.496Z,9.98
2017-11-01T10:35:47.038Z,9.98
2017-11-01T10:38:14.530Z,9.98
2017-11-01T10:40:42.018Z,9.97
2017-11-01T10:43:09.548Z,9.95
2017-11-01T10:45:37.052Z,10.00
2017-11-01T10:48:04.615Z,10.01
2017-11-01T10:50:32.143Z,10.06
2017-11-01T10:52:59.686Z,10.03
2017-11-01T10:55:27.181Z,10.11
2017-11-01T10:57:54.687Z,10.17
2017-11-01T11:00:22.323Z,10.27
2017-11-01T11:02:49.832Z,10.29
2017-11-01T11:05:17.372Z,10.27
2017-11-01T11:07:44.860Z,10.27
2017-11-01T11:10:12.363Z,10.30
2017-11-01T11:12:39.883Z,10.28
2017-11-01T11:15:07.456Z,10.28
2017-11-01T11:17:34.955Z,10.31
2017-11-01T11:20:02.484Z,10.34
2017-11-01T11:22:29.976Z,10.35
2017-11-01T11:24:57.470Z,10.34
2017-11-01T11:27:25.003Z,10.36
2017-11-01T11:29:52.518Z,10.44
2017-11-01T11:32:20.043Z,10.48
2017-11-01T11:34:47.566Z,10.51
2017-11-01T11:37:15.067Z,10.51
2017-11-01T11:39:42.640Z,10.50
2017-11-01T11:42:10.173Z,10.49
2017-11-01T11:44:37.666Z,10.51
2017-11-01T11:47:05.163Z,10.54
2017-11-01T11:49:32.693Z,10.59
2017-11-01T11:52:00.200Z,10.61
2017-11-01T11:54:27.701Z,10.61
2017-11-01T11:56:55.240Z,10.64
2017-11-01T11:59:22.832Z,10.66
2017-11-01T12:01:50.325Z,10.69
2017-11-01T12:04:17.861Z,10.71
2017-11-01T12:06:45.354Z,10.71
2017-11-01T12:09:12.912Z,10.74
2017-11-01T12:11:40.429Z,10.83
2017-11-01T12:14:07.949Z,10.90
2017-11-01T12:16:35.441Z,10.87
2017-11-01T12:19:02.931Z,10.85
2017-11-01T12:21:30.596Z,10.85
2017-11-01T12:23:58.090Z,10.86
2017-11-01T12:26:25.584Z,10.88
2017-11-01T12:28:53.120Z,10.87
2017-11-01T12:31:20.620Z,10.89
2017-11-01T12:33:48.108Z,10.90
2017-11-01T12:36:15.651Z,10.94
2017-11-01T12:38:43.147Z,10.98
2017-11-01T12:41:10.646Z,11.00
2017-11-01T12:43:38.268Z,10.99
2017-11-01T12:46:05.766Z,11.03
2017-11-01T12:48:33.381Z,10.98
2017-11-01T12:51:00.938Z,10.97
2017-11-01T12:53:28.504Z,11.05
2017-11-01T12:55:56.044Z,11.12
2017-11-01T12:58:23.642Z,11.19
2017-11-01T13:00:51.154Z,11.22
2017-11-01T13:03:18.699Z,11.20
2017-11-01T13:05:46.195Z,11.20
2017-11-01T13:08:13.703Z,11.22
2017-11-01T13:10:41.215Z,11.22
2017-11-01T13:13:08.715Z,11.20
2017-11-01T13:15:36.238Z,11.20
2017-11-01T13:18:03.735Z,11.21
2017-11-01T13:20:31.241Z,11.29
2017-11-01T13:22:58.761Z,11.33
2017-11-01T13:25:26.264Z,11.37
2017-11-01T13:27:53.785Z,11.37
2017-11-01T13:30:21.271Z,11.40
2017-11-01T13:32:48.812Z,11.35
2017-11-01T13:35:16.299Z,11.34
2017-11-01T13:37:43.883Z,11.34
2017-11-01T13:40:11.466Z,11.36
2017-11-01T13:42:38.956Z,11.42
2017-11-01T13:45:06.449Z,11.45
2017-11-01T13:47:34.011Z,11.45
2017-11-01T13:50:01.507Z,11.39
2017-11-01T13:52:28.997Z,11.42
2017-11-01T13:54:56.567Z,11.45
2017-11-01T13:57:24.062Z,11.44
2017-11-01T13:59:51.563Z,11.42
2017-11-01T14:02:19.088Z,11.35
2017-11-01T14:04:46.609Z,11.37
2017-11-01T14:07:14.106Z,11.38
2017-11-01T14:09:41.659Z,11.38
2017-11-01T14:12:09.172Z,11.42
2017-11-01T14:14:36.686Z,11.43
2017-11-01T14:17:04.297Z,11.38
2017-11-01T14:19:31.789Z,11.36
2017-11-01T14:21:59.340Z,11.34
2017-11-01T14:24:26.831Z,11.33
2017-11-01T14:26:54.424Z,11.35
2017-11-01T14:29:22.002Z,11.36
2017-11-01T14:31:49.489Z,11.38
2017-11-01T14:34:16.979Z,11.38
2017-11-01T14:36:44.527Z,11.36
2017-11-01T14:39:12.040Z,11.35
2017-11-01T14:41:39.532Z,11.35
2017-11-01T14:44:07.140Z,11.33
2017-11-01T14:46:34.700Z,11.30
2017-11-01T14:49:02.283Z,11.31
2017-11-01T14:51:29.797Z,11.28
2017-11-01T14:53:57.357Z,11.30
2017-11-01T14:56:24.878Z,11.29
2017-11-01T14:58:52.384Z,11.33
2017-11-01T15:01:19.927Z,11.33
2017-11-01T15:03:47.418Z,11.34
2017-11-01T15:06:14.968Z,11.32
2017-11-01T15:08:42.499Z,11.33
2017-11-01T15:11:10.009Z,11.31
2017-11-01T15:13:37.504Z,11.25
2017-11-01T15:16:05.023Z,11.24
2017-11-01T15:18:32.515Z,11.21
2017-11-01T15:21:00.038Z,11.20
2017-11-01T15:23:27.591Z,11.18
2017-11-01T15:25:55.113Z,11.19
2017-11-01T15:28:22.606Z,11.16
2017-11-01T15:30:50.159Z,11.13
2017-11-01T15:33:17.700Z,11.15
2017-11-01T15:35:45.193Z,11.11
2017-11-01T15:38:12.684Z,11.12
2017-11-01T15:40:40.216Z,11.13
2017-11-01T15:43:07.716Z,11.17
2017-11-01T15:45:35.306Z,11.14
2017-11-01T15:48:02.834Z,11.13
2017-11-01T15:50:30.391Z,11.13
2017-11-01T15:52:57.884Z,11.17
2017-11-01T15:55:25.452Z,11.18
2017-11-01T15:57:53.930Z,11.16
2017-11-01T16:00:21.481Z,11.15
2017-11-01T16:02:49.048Z,11.11
2017-11-01T16:05:16.597Z,11.12
2017-11-01T16:07:44.088Z,11.13
2017-11-01T16:10:11.615Z,11.15
2017-11-01T16:12:39.116Z,11.16
2017-11-01T16:15:06.636Z,11.16
2017-11-01T16:17:34.200Z,11.13
2017-11-01T16:20:01.692Z,11.14
2017-11-01T16:22:29.215Z,11.14
2017-11-01T16:24:56.727Z,11.16
2017-11-01T16:27:24.277Z,11.19
2017-11-01T16:29:51.799Z,11.19
2017-11-01T16:32:19.350Z,11.21
2017-11-01T16:34:46.874Z,11.23
2017-11-01T16:37:14.392Z,11.23
2017-11-01T16:39:41.916Z,11.24
2017-11-01T16:42:09.502Z,11.25
2017-11-01T16:44:36.991Z,11.24
2017-11-01T16:47:04.528Z,11.19
2017-11-01T16:49:32.050Z,11.18
2017-11-01T16:51:59.618Z,11.17
2017-11-01T16:54:27.152Z,11.16
2017-11-01T16:56:54.639Z,11.20
2017-11-01T16:59:22.137Z,11.25
2017-11-01T17:01:49.680Z,11.26
2017-11-01T17:04:17.178Z,11.27
2017-11-01T17:06:44.684Z,11.28
2017-11-01T17:09:12.227Z,11.28
2017-11-01T17:11:39.720Z,11.23
2017-11-01T17:14:07.238Z,11.25
2017-11-01T17:16:34.769Z,11.27
2017-11-01T17:19:02.380Z,11.28
2017-11-01T17:21:29.873Z,11.25
2017-11-01T17:23:57.402Z,11.25
2017-11-01T17:26:24.887Z,11.21
2017-11-01T17:28:52.388Z,11.22
2017-11-01T17:31:19.909Z,11.22
2017-11-01T17:33:47.510Z,11.20
2017-11-01T17:36:15.001Z,11.19
2017-11-01T17:38:42.632Z,11.21
2017-11-01T17:41:10.126Z,11.17
2017-11-01T17:43:37.628Z,11.19
2017-11-01T17:46:05.145Z,11.20
2017-11-01T17:48:32.645Z,11.22
2017-11-01T17:51:00.164Z,11.25
2017-11-01T17:53:27.673Z,11.24
2017-11-01T17:55:55.186Z,11.23
2017-11-01T17:58:22.724Z,11.22
2017-11-01T18:00:50.281Z,11.22
2017-11-01T18:03:17.771Z,11.21
2017-11-01T18:05:45.333Z,11.22
2017-11-01T18:08:12.825Z,11.22
2017-11-01T18:10:40.316Z,11.22
2017-11-01T18:13:07.848Z,11.25
2017-11-01T18:15:35.338Z,11.25
2017-11-01T18:18:02.879Z,11.26
2017-11-01T18:20:30.393Z,11.26
2017-11-01T18:22:57.893Z,11.28
2017-11-01T18:25:25.424Z,11.29
2017-11-01T18:27:52.999Z,11.29
2017-11-01T18:30:20.500Z,11.29
2017-11-01T18:32:48.009Z,11.25
2017-11-01T18:35:15.572Z,11.22
2017-11-01T18:37:43.072Z,11.21
2017-11-01T18:40:10.570Z,11.22
2017-11-01T18:42:38.128Z,11.21
2017-11-01T18:45:05.706Z,11.22
2017-11-01T18:47:33.206Z,11.21
2017-11-01T18:50:00.731Z,11.20
2017-11-01T18:52:28.221Z,11.21
2017-11-01T18:54:55.777Z,11.19
2017-11-01T18:57:23.271Z,11.18
2017-11-01T18:59:50.884Z,11.19
2017-11-01T19:02:18.436Z,11.18
2017-11-01T19:04:45.946Z,11.17
2017-11-01T19:07:13.475Z,11.19
2017-11-01T19:09:40.968Z,11.18
2017-11-01T19:12:08.503Z,11.18
2017-11-01T19:14:36.019Z,11.20
2017-11-01T19:17:03.509Z,11.19
2017-11-01T19:19:31.047Z,11.20
2017-11-01T19:21:58.591Z,11.19
2017-11-01T19:24:26.145Z,11.19
2017-11-01T19:26:53.718Z,11.19
2017-11-01T19:29:21.246Z,11.20
2017-11-01T19:31:48.733Z,11.16
2017-11-01T19:34:16.269Z,11.16
2017-11-01T19:36:43.758Z,11.14
2017-11-01T19:39:11.272Z,11.17
2017-11-01T19:41:38.831Z,11.16
2017-11-01T19:44:06.334Z,11.11
2017-11-01T19:46:33.881Z,11.05
2017-11-01T19:49:01.404Z,10.99
2017-11-01T19:51:28.896Z,10.94
2017-11-01T19:53:56.554Z,10.92
2017-11-01T19:56:24.056Z,10.92
2017-11-01T19:58:51.556Z,10.89
2017-11-01T20:01:19.086Z,10.90
2017-11-01T20:03:46.588Z,10.94
2017-11-01T20:06:14.092Z,10.96
2017-11-01T20:08:41.625Z,10.98
2017-11-01T20:11:09.123Z,10.99
2017-11-01T20:13:36.616Z,10.98
2017-11-01T20:16:05.140Z,10.97
2017-11-01T20:18:32.664Z,10.94
2017-11-01T20:21:00.215Z,10.88
2017-11-01T20:23:27.739Z,10.82
2017-11-01T20:25:55.356Z,10.87
2017-11-01T20:28:22.883Z,10.88
2017-11-01T20:30:50.374Z,10.88
2017-11-01T20:33:17.875Z,10.91
2017-11-01T20:35:45.466Z,10.89
2017-11-01T20:38:12.960Z,10.88
2017-11-01T20:40:40.493Z,10.87
2017-11-01T20:43:08.045Z,10.88
2017-11-01T20:45:35.543Z,10.87
2017-11-01T20:48:03.031Z,10.87
2017-11-01T20:50:30.567Z,10.87
2017-11-01T20:52:58.056Z,10.89
2017-11-01T20:55:25.635Z,10.87
2017-11-01T20:57:53.156Z,10.85
2017-11-01T21:00:20.653Z,10.85
2017-11-01T21:02:48.218Z,10.86
2017-11-01T21:05:15.713Z,10.86
2017-11-01T21:07:43.205Z,10.86
2017-11-01T21:10:10.740Z,10.87
2017-11-01T21:12:38.232Z,10.83
2017-11-01T21:15:05.735Z,10.81
2017-11-01T21:17:33.267Z,10.78
2017-11-01T21:20:00.800Z,10.77
2017-11-01T21:22:28.293Z,10.73
2017-11-01T21:24:55.792Z,10.74
2017-11-01T21:27:23.394Z,10.74
2017-11-01T21:29:50.947Z,10.75
2017-11-01T21:32:18.441Z,10.75
2017-11-01T21:34:45.992Z,10.73
2017-11-01T21:37:13.493Z,10.71
2017-11-01T21:39:41.146Z,10.66
2017-11-01T21:42:08.675Z,10.65
2017-11-01T21:44:36.172Z,10.64
2017-11-01T21:47:03.677Z,10.61
2017-11-01T21:49:31.233Z,10.61
2017-11-01T21:51:58.789Z,10.59
2017-11-01T21:54:26.289Z,10.58
2017-11-01T21:56:53.810Z,10.62
2017-11-01T21:59:21.299Z,10.61
2017-11-01T22:01:48.805Z,10.62
2017-11-01T22:04:16.345Z,10.61
2017-11-01T22:06:43.844Z,10.62
2017-11-01T22:09:11.358Z,10.65
2017-11-01T22:11:38.953Z,10.67
2017-11-01T22:14:06.513Z,10.68
2017-11-01T22:16:34.005Z,10.68
2017-11-01T22:19:01.630Z,10.67
2017-11-01T22:21:29.127Z,10.68
2017-11-01T22:23:56.619Z,10.70
2017-11-01T22:26:24.146Z,10.72
2017-11-01T22:28:51.653Z,10.68
2017-11-01T22:31:19.192Z,10.67
2017-11-01T22:33:46.692Z,10.66
2017-11-01T22:36:14.185Z,10.68
2017-11-01T22:38:41.756Z,10.67
2017-11-01T22:41:09.257Z,10.64
2017-11-01T22:43:36.812Z,10.61
2017-11-01T22:46:04.339Z,10.61
2017-11-01T22:48:31.831Z,10.61
2017-11-01T22:50:59.328Z,10.62
2017-11-01T22:53:26.885Z,10.63
2017-11-01T22:55:54.378Z,10.64
2017-11-01T22:58:21.877Z,10.63
2017-11-01T23:00:49.425Z,10.62
2017-11-01T23:03:16.917Z,10.61
2017-11-01T23:05:44.420Z,10.60
2017-11-01T23:08:11.955Z,10.63
2017-11-01T23:10:39.456Z,10.64
2017-11-01T23:13:06.949Z,10.63
2017-11-01T23:15:34.581Z,10.63
2017-11-01T23:18:02.077Z,10.60
2017-11-01T23:20:29.574Z,10.61
2017-11-01T23:22:57.144Z,10.59
2017-11-01T23:25:24.649Z,10.57
2017-11-01T23:27:52.168Z,10.54
2017-11-01T23:30:19.696Z,10.54
2017-11-01T23:32:47.265Z,10.50
2017-11-01T23:35:14.809Z,10.48
2017-11-01T23:37:42.405Z,10.49
2017-11-01T23:40:09.896Z,10.48
2017-11-01T23:42:37.531Z,10.47
2017-11-01T23:45:05.080Z,10.44
2017-11-01T23:47:32.576Z,10.45
2017-11-01T23:50:00.116Z,10.45
2017-11-01T23:52:27.614Z,10.50
2017-11-01T23:54:55.124Z,10.50
2017-11-01T23:57:22.680Z,10.52
2017-11-01T23:59:50.168Z,10.54
